Papere Vagabonde

Aviosuperficie Caposile LIKI

Pista 04


Pista 22

Le immagini vengono aggiornate ogni minuto
Cliccare sull'immagine per l'ingrandimento.

METAR LIPZ

LIPZ 121620Z 02003KT 360V060 9999 SCT060 17/12 Q1006 NOSIG

TAF LIPZ 121100Z 1212/1318 03007KT 9999 SCT040
  TEMPO 1212/1224 SHRA
  TEMPO 1309/1318 TSRA
  BECMG 1310/1312 15010KT


weather station active


      


Alba: 05:45
Tramonto: 20:27